sensor_id;sensor_type;location;lat;lon;timestamp;P1;durP1;ratioP1;P2;durP2;ratioP2
21733;SDS011;11029;47.820;10.534;2024-02-21T00:01:33;5.15;;;3.20;;
21733;SDS011;11029;47.820;10.534;2024-02-21T00:04:19;4.82;;;3.70;;
21733;SDS011;11029;47.820;10.534;2024-02-21T00:07:04;6.47;;;3.20;;
21733;SDS011;11029;47.820;10.534;2024-02-21T00:09:50;6.35;;;3.13;;
21733;SDS011;11029;47.820;10.534;2024-02-21T00:12:36;4.70;;;2.80;;
21733;SDS011;11029;47.820;10.534;2024-02-21T00:15:21;5.03;;;3.15;;
21733;SDS011;11029;47.820;10.534;2024-02-21T00:18:07;7.45;;;3.50;;
21733;SDS011;11029;47.820;10.534;2024-02-21T00:20:53;4.68;;;3.60;;
21733;SDS011;11029;47.820;10.534;2024-02-21T00:23:39;7.90;;;4.00;;
21733;SDS011;11029;47.820;10.534;2024-02-21T00:26:24;6.90;;;3.05;;
21733;SDS011;11029;47.820;10.534;2024-02-21T00:29:10;4.47;;;2.60;;
21733;SDS011;11029;47.820;10.534;2024-02-21T00:31:56;4.10;;;2.45;;
21733;SDS011;11029;47.820;10.534;2024-02-21T00:34:41;3.72;;;2.72;;
21733;SDS011;11029;47.820;10.534;2024-02-21T00:37:28;3.63;;;2.28;;
21733;SDS011;11029;47.820;10.534;2024-02-21T00:40:14;3.08;;;1.98;;
21733;SDS011;11029;47.820;10.534;2024-02-21T00:43:04;2.45;;;1.92;;
21733;SDS011;11029;47.820;10.534;2024-02-21T00:45:50;7.55;;;2.30;;
21733;SDS011;11029;47.820;10.534;2024-02-21T00:48:36;3.78;;;2.28;;
21733;SDS011;11029;47.820;10.534;2024-02-21T00:51:22;3.10;;;2.20;;
21733;SDS011;11029;47.820;10.534;2024-02-21T00:54:07;4.05;;;2.67;;
21733;SDS011;11029;47.820;10.534;2024-02-21T00:56:53;4.65;;;2.97;;
21733;SDS011;11029;47.820;10.534;2024-02-21T00:59:38;6.93;;;2.67;;
21733;SDS011;11029;47.820;10.534;2024-02-21T01:02:23;4.30;;;2.50;;
21733;SDS011;11029;47.820;10.534;2024-02-21T01:05:09;5.03;;;3.13;;
21733;SDS011;11029;47.820;10.534;2024-02-21T01:07:55;6.82;;;2.88;;
21733;SDS011;11029;47.820;10.534;2024-02-21T01:10:41;5.72;;;2.60;;
21733;SDS011;11029;47.820;10.534;2024-02-21T01:13:28;5.60;;;3.00;;
21733;SDS011;11029;47.820;10.534;2024-02-21T01:16:13;4.30;;;2.60;;
21733;SDS011;11029;47.820;10.534;2024-02-21T01:18:59;7.50;;;2.95;;
21733;SDS011;11029;47.820;10.534;2024-02-21T01:21:45;5.13;;;2.42;;
21733;SDS011;11029;47.820;10.534;2024-02-21T01:24:30;4.88;;;2.53;;
21733;SDS011;11029;47.820;10.534;2024-02-21T01:27:15;5.32;;;2.88;;
21733;SDS011;11029;47.820;10.534;2024-02-21T01:30:01;6.63;;;3.33;;
21733;SDS011;11029;47.820;10.534;2024-02-21T01:32:46;4.60;;;2.90;;
21733;SDS011;11029;47.820;10.534;2024-02-21T01:35:32;5.40;;;3.92;;
21733;SDS011;11029;47.820;10.534;2024-02-21T01:38:19;9.32;;;3.45;;
21733;SDS011;11029;47.820;10.534;2024-02-21T01:41:05;7.28;;;2.92;;
21733;SDS011;11029;47.820;10.534;2024-02-21T01:43:51;3.38;;;2.50;;
21733;SDS011;11029;47.820;10.534;2024-02-21T01:46:37;4.28;;;2.35;;
21733;SDS011;11029;47.820;10.534;2024-02-21T01:49:23;3.97;;;2.40;;
21733;SDS011;11029;47.820;10.534;2024-02-21T01:52:09;5.55;;;2.60;;
21733;SDS011;11029;47.820;10.534;2024-02-21T01:54:57;2.78;;;2.22;;
21733;SDS011;11029;47.820;10.534;2024-02-21T01:57:43;5.93;;;2.65;;
21733;SDS011;11029;47.820;10.534;2024-02-21T02:00:32;4.40;;;2.03;;
21733;SDS011;11029;47.820;10.534;2024-02-21T02:03:19;3.13;;;1.80;;
21733;SDS011;11029;47.820;10.534;2024-02-21T02:06:05;2.10;;;1.88;;
21733;SDS011;11029;47.820;10.534;2024-02-21T02:08:54;2.33;;;1.90;;
21733;SDS011;11029;47.820;10.534;2024-02-21T02:11:39;4.55;;;2.05;;
21733;SDS011;11029;47.820;10.534;2024-02-21T02:14:25;2.70;;;1.85;;
21733;SDS011;11029;47.820;10.534;2024-02-21T02:17:11;4.75;;;1.85;;
21733;SDS011;11029;47.820;10.534;2024-02-21T02:19:56;2.88;;;1.73;;
21733;SDS011;11029;47.820;10.534;2024-02-21T02:22:42;3.25;;;2.03;;
21733;SDS011;11029;47.820;10.534;2024-02-21T02:25:29;3.25;;;2.10;;
21733;SDS011;11029;47.820;10.534;2024-02-21T02:28:15;3.47;;;2.17;;
21733;SDS011;11029;47.820;10.534;2024-02-21T02:31:01;1.92;;;1.80;;
21733;SDS011;11029;47.820;10.534;2024-02-21T02:33:46;5.10;;;2.47;;
21733;SDS011;11029;47.820;10.534;2024-02-21T02:36:34;3.08;;;2.10;;
21733;SDS011;11029;47.820;10.534;2024-02-21T02:39:20;2.88;;;2.05;;
21733;SDS011;11029;47.820;10.534;2024-02-21T02:42:06;2.22;;;1.70;;
21733;SDS011;11029;47.820;10.534;2024-02-21T02:44:51;5.38;;;1.83;;
21733;SDS011;11029;47.820;10.534;2024-02-21T02:47:37;1.98;;;1.80;;
21733;SDS011;11029;47.820;10.534;2024-02-21T02:50:25;3.17;;;1.90;;
21733;SDS011;11029;47.820;10.534;2024-02-21T02:53:11;1.92;;;1.50;;
21733;SDS011;11029;47.820;10.534;2024-02-21T02:55:57;3.60;;;1.60;;
21733;SDS011;11029;47.820;10.534;2024-02-21T02:58:43;3.25;;;1.70;;
21733;SDS011;11029;47.820;10.534;2024-02-21T03:01:32;6.00;;;1.83;;
21733;SDS011;11029;47.820;10.534;2024-02-21T03:04:19;4.72;;;1.92;;
21733;SDS011;11029;47.820;10.534;2024-02-21T03:07:06;2.75;;;2.08;;
21733;SDS011;11029;47.820;10.534;2024-02-21T03:09:52;5.97;;;2.42;;
21733;SDS011;11029;47.820;10.534;2024-02-21T03:12:38;4.22;;;2.35;;
21733;SDS011;11029;47.820;10.534;2024-02-21T03:15:24;2.10;;;1.90;;
21733;SDS011;11029;47.820;10.534;2024-02-21T03:18:10;3.92;;;1.75;;
21733;SDS011;11029;47.820;10.534;2024-02-21T03:20:55;2.42;;;2.00;;
21733;SDS011;11029;47.820;10.534;2024-02-21T03:23:41;2.95;;;1.65;;
21733;SDS011;11029;47.820;10.534;2024-02-21T03:26:26;4.32;;;1.98;;
21733;SDS011;11029;47.820;10.534;2024-02-21T03:29:12;4.90;;;2.42;;
21733;SDS011;11029;47.820;10.534;2024-02-21T03:31:57;3.28;;;1.70;;
21733;SDS011;11029;47.820;10.534;2024-02-21T03:34:43;3.75;;;1.95;;
21733;SDS011;11029;47.820;10.534;2024-02-21T03:37:29;2.33;;;1.75;;
21733;SDS011;11029;47.820;10.534;2024-02-21T03:40:14;4.32;;;2.40;;
21733;SDS011;11029;47.820;10.534;2024-02-21T03:43:00;2.60;;;2.17;;
21733;SDS011;11029;47.820;10.534;2024-02-21T03:45:45;4.45;;;2.47;;
21733;SDS011;11029;47.820;10.534;2024-02-21T03:48:31;4.13;;;2.50;;
21733;SDS011;11029;47.820;10.534;2024-02-21T03:51:16;2.85;;;2.25;;
21733;SDS011;11029;47.820;10.534;2024-02-21T03:54:02;3.97;;;2.63;;
21733;SDS011;11029;47.820;10.534;2024-02-21T03:56:47;3.30;;;2.17;;
21733;SDS011;11029;47.820;10.534;2024-02-21T03:59:34;3.95;;;2.38;;
21733;SDS011;11029;47.820;10.534;2024-02-21T04:02:19;2.67;;;1.90;;
21733;SDS011;11029;47.820;10.534;2024-02-21T04:05:05;2.72;;;1.63;;
21733;SDS011;11029;47.820;10.534;2024-02-21T04:07:54;1.83;;;1.40;;
21733;SDS011;11029;47.820;10.534;2024-02-21T04:10:40;2.80;;;1.40;;
21733;SDS011;11029;47.820;10.534;2024-02-21T04:13:27;1.98;;;1.50;;
21733;SDS011;11029;47.820;10.534;2024-02-21T04:16:12;1.60;;;1.45;;
21733;SDS011;11029;47.820;10.534;2024-02-21T04:18:58;1.77;;;1.25;;
21733;SDS011;11029;47.820;10.534;2024-02-21T04:21:44;1.58;;;1.27;;
21733;SDS011;11029;47.820;10.534;2024-02-21T04:24:29;1.73;;;1.20;;
21733;SDS011;11029;47.820;10.534;2024-02-21T04:27:15;1.95;;;1.75;;
21733;SDS011;11029;47.820;10.534;2024-02-21T04:30:01;4.30;;;1.88;;
21733;SDS011;11029;47.820;10.534;2024-02-21T04:32:47;3.05;;;1.70;;
21733;SDS011;11029;47.820;10.534;2024-02-21T04:35:33;2.08;;;1.60;;
21733;SDS011;11029;47.820;10.534;2024-02-21T04:38:18;2.20;;;2.00;;
21733;SDS011;11029;47.820;10.534;2024-02-21T04:41:04;3.03;;;1.98;;
21733;SDS011;11029;47.820;10.534;2024-02-21T04:43:50;3.17;;;1.90;;
21733;SDS011;11029;47.820;10.534;2024-02-21T04:46:35;4.38;;;2.25;;
21733;SDS011;11029;47.820;10.534;2024-02-21T04:49:21;4.88;;;2.30;;
21733;SDS011;11029;47.820;10.534;2024-02-21T04:52:07;4.55;;;2.83;;
21733;SDS011;11029;47.820;10.534;2024-02-21T04:54:52;2.40;;;2.03;;
21733;SDS011;11029;47.820;10.534;2024-02-21T04:57:38;3.97;;;2.40;;
21733;SDS011;11029;47.820;10.534;2024-02-21T05:00:23;3.30;;;2.22;;
21733;SDS011;11029;47.820;10.534;2024-02-21T05:03:09;4.28;;;2.05;;
21733;SDS011;11029;47.820;10.534;2024-02-21T05:05:54;5.25;;;2.67;;
21733;SDS011;11029;47.820;10.534;2024-02-21T05:08:40;7.03;;;2.60;;
21733;SDS011;11029;47.820;10.534;2024-02-21T05:11:26;3.20;;;1.90;;
21733;SDS011;11029;47.820;10.534;2024-02-21T05:14:12;2.72;;;1.90;;
21733;SDS011;11029;47.820;10.534;2024-02-21T05:16:57;3.25;;;1.90;;
21733;SDS011;11029;47.820;10.534;2024-02-21T05:19:43;2.55;;;1.80;;
21733;SDS011;11029;47.820;10.534;2024-02-21T05:22:29;3.55;;;2.10;;
21733;SDS011;11029;47.820;10.534;2024-02-21T05:25:15;3.13;;;1.80;;
21733;SDS011;11029;47.820;10.534;2024-02-21T05:28:01;3.08;;;2.08;;
21733;SDS011;11029;47.820;10.534;2024-02-21T05:30:48;5.18;;;2.47;;
21733;SDS011;11029;47.820;10.534;2024-02-21T05:33:34;6.40;;;2.97;;
21733;SDS011;11029;47.820;10.534;2024-02-21T05:36:20;10.18;;;3.05;;
21733;SDS011;11029;47.820;10.534;2024-02-21T05:39:05;3.70;;;2.13;;
21733;SDS011;11029;47.820;10.534;2024-02-21T05:41:51;1.77;;;1.13;;
21733;SDS011;11029;47.820;10.534;2024-02-21T05:44:36;1.92;;;1.15;;
21733;SDS011;11029;47.820;10.534;2024-02-21T05:47:22;3.10;;;1.20;;
21733;SDS011;11029;47.820;10.534;2024-02-21T05:50:08;3.83;;;1.20;;
21733;SDS011;11029;47.820;10.534;2024-02-21T05:52:55;21.38;;;5.78;;
21733;SDS011;11029;47.820;10.534;2024-02-21T05:55:41;77.63;;;17.30;;
21733;SDS011;11029;47.820;10.534;2024-02-21T05:58:26;69.72;;;18.95;;
21733;SDS011;11029;47.820;10.534;2024-02-21T06:01:12;102.97;;;25.08;;
21733;SDS011;11029;47.820;10.534;2024-02-21T06:03:58;65.10;;;17.38;;
21733;SDS011;11029;47.820;10.534;2024-02-21T06:06:43;21.58;;;7.80;;
21733;SDS011;11029;47.820;10.534;2024-02-21T06:09:29;18.85;;;6.68;;
21733;SDS011;11029;47.820;10.534;2024-02-21T06:12:14;17.25;;;6.47;;
21733;SDS011;11029;47.820;10.534;2024-02-21T06:14:59;17.30;;;5.88;;
21733;SDS011;11029;47.820;10.534;2024-02-21T06:17:45;36.50;;;13.40;;
21733;SDS011;11029;47.820;10.534;2024-02-21T06:20:30;34.58;;;13.05;;
21733;SDS011;11029;47.820;10.534;2024-02-21T06:23:16;29.50;;;11.45;;
21733;SDS011;11029;47.820;10.534;2024-02-21T06:26:02;37.65;;;12.07;;
21733;SDS011;11029;47.820;10.534;2024-02-21T06:28:48;24.52;;;8.50;;
21733;SDS011;11029;47.820;10.534;2024-02-21T06:31:35;22.38;;;8.00;;
21733;SDS011;11029;47.820;10.534;2024-02-21T06:34:21;17.90;;;8.05;;
21733;SDS011;11029;47.820;10.534;2024-02-21T06:37:07;19.10;;;8.68;;
21733;SDS011;11029;47.820;10.534;2024-02-21T06:39:52;14.93;;;6.63;;
21733;SDS011;11029;47.820;10.534;2024-02-21T06:42:37;8.25;;;4.50;;
21733;SDS011;11029;47.820;10.534;2024-02-21T06:45:23;10.57;;;3.35;;
21733;SDS011;11029;47.820;10.534;2024-02-21T06:48:09;6.32;;;3.28;;
21733;SDS011;11029;47.820;10.534;2024-02-21T06:50:56;14.77;;;6.93;;
21733;SDS011;11029;47.820;10.534;2024-02-21T06:53:41;14.75;;;6.78;;
21733;SDS011;11029;47.820;10.534;2024-02-21T06:56:28;9.02;;;4.88;;
21733;SDS011;11029;47.820;10.534;2024-02-21T06:59:14;8.70;;;4.68;;
21733;SDS011;11029;47.820;10.534;2024-02-21T07:02:00;15.10;;;7.07;;
21733;SDS011;11029;47.820;10.534;2024-02-21T07:04:46;20.65;;;7.93;;
21733;SDS011;11029;47.820;10.534;2024-02-21T07:07:31;17.42;;;9.43;;
21733;SDS011;11029;47.820;10.534;2024-02-21T07:10:17;17.73;;;9.95;;
21733;SDS011;11029;47.820;10.534;2024-02-21T07:13:03;20.88;;;10.68;;
21733;SDS011;11029;47.820;10.534;2024-02-21T07:15:49;17.58;;;8.45;;
21733;SDS011;11029;47.820;10.534;2024-02-21T07:18:35;13.00;;;7.28;;
21733;SDS011;11029;47.820;10.534;2024-02-21T07:21:20;14.95;;;7.10;;
21733;SDS011;11029;47.820;10.534;2024-02-21T07:24:06;10.57;;;5.97;;
21733;SDS011;11029;47.820;10.534;2024-02-21T07:26:52;10.05;;;5.78;;
21733;SDS011;11029;47.820;10.534;2024-02-21T07:29:38;7.57;;;4.38;;
21733;SDS011;11029;47.820;10.534;2024-02-21T07:32:23;3.97;;;2.78;;
21733;SDS011;11029;47.820;10.534;2024-02-21T07:35:09;4.50;;;2.85;;
21733;SDS011;11029;47.820;10.534;2024-02-21T07:37:56;3.92;;;3.10;;
21733;SDS011;11029;47.820;10.534;2024-02-21T07:40:42;4.00;;;2.50;;
21733;SDS011;11029;47.820;10.534;2024-02-21T07:43:30;1.58;;;1.33;;
21733;SDS011;11029;47.820;10.534;2024-02-21T07:46:15;2.10;;;1.60;;
21733;SDS011;11029;47.820;10.534;2024-02-21T07:49:01;5.35;;;3.47;;
21733;SDS011;11029;47.820;10.534;2024-02-21T07:51:47;6.72;;;3.33;;
21733;SDS011;11029;47.820;10.534;2024-02-21T07:54:32;7.18;;;4.40;;
21733;SDS011;11029;47.820;10.534;2024-02-21T07:57:18;6.38;;;3.70;;
21733;SDS011;11029;47.820;10.534;2024-02-21T08:00:03;3.85;;;2.05;;
21733;SDS011;11029;47.820;10.534;2024-02-21T08:02:56;4.22;;;2.13;;
21733;SDS011;11029;47.820;10.534;2024-02-21T08:05:41;5.30;;;2.08;;
21733;SDS011;11029;47.820;10.534;2024-02-21T08:08:27;3.17;;;2.42;;
21733;SDS011;11029;47.820;10.534;2024-02-21T08:11:12;4.28;;;2.38;;
21733;SDS011;11029;47.820;10.534;2024-02-21T08:13:59;3.25;;;2.22;;
21733;SDS011;11029;47.820;10.534;2024-02-21T08:16:45;2.85;;;2.25;;
21733;SDS011;11029;47.820;10.534;2024-02-21T08:19:31;3.97;;;2.03;;
21733;SDS011;11029;47.820;10.534;2024-02-21T08:22:17;4.38;;;2.50;;
21733;SDS011;11029;47.820;10.534;2024-02-21T08:25:03;7.85;;;3.60;;
21733;SDS011;11029;47.820;10.534;2024-02-21T08:27:50;5.30;;;2.10;;
21733;SDS011;11029;47.820;10.534;2024-02-21T08:30:36;1.40;;;0.90;;
21733;SDS011;11029;47.820;10.534;2024-02-21T08:33:21;3.30;;;0.70;;
21733;SDS011;11029;47.820;10.534;2024-02-21T08:36:17;1.58;;;0.98;;
21733;SDS011;11029;47.820;10.534;2024-02-21T08:39:04;1.55;;;0.68;;
21733;SDS011;11029;47.820;10.534;2024-02-21T08:41:50;1.08;;;0.80;;
21733;SDS011;11029;47.820;10.534;2024-02-21T08:44:42;1.23;;;0.60;;
21733;SDS011;11029;47.820;10.534;2024-02-21T08:47:28;2.00;;;0.80;;
21733;SDS011;11029;47.820;10.534;2024-02-21T08:50:14;1.10;;;0.75;;
21733;SDS011;11029;47.820;10.534;2024-02-21T08:53:12;1.33;;;0.70;;
21733;SDS011;11029;47.820;10.534;2024-02-21T08:55:59;2.65;;;1.40;;
21733;SDS011;11029;47.820;10.534;2024-02-21T08:58:45;2.10;;;1.70;;
21733;SDS011;11029;47.820;10.534;2024-02-21T09:01:32;2.50;;;1.60;;
21733;SDS011;11029;47.820;10.534;2024-02-21T09:04:19;3.30;;;1.85;;
21733;SDS011;11029;47.820;10.534;2024-02-21T09:07:06;3.58;;;2.30;;
21733;SDS011;11029;47.820;10.534;2024-02-21T09:09:51;3.50;;;2.05;;
21733;SDS011;11029;47.820;10.534;2024-02-21T09:12:37;1.55;;;1.15;;
21733;SDS011;11029;47.820;10.534;2024-02-21T09:15:22;3.15;;;1.45;;
21733;SDS011;11029;47.820;10.534;2024-02-21T09:18:09;3.92;;;1.80;;
21733;SDS011;11029;47.820;10.534;2024-02-21T09:20:55;2.90;;;1.63;;
21733;SDS011;11029;47.820;10.534;2024-02-21T09:23:43;2.95;;;1.98;;
21733;SDS011;11029;47.820;10.534;2024-02-21T09:26:30;1.33;;;1.20;;
21733;SDS011;11029;47.820;10.534;2024-02-21T09:29:15;1.13;;;0.90;;
21733;SDS011;11029;47.820;10.534;2024-02-21T09:32:01;0.68;;;0.65;;
21733;SDS011;11029;47.820;10.534;2024-02-21T09:34:47;0.82;;;0.75;;
21733;SDS011;11029;47.820;10.534;2024-02-21T09:37:33;1.15;;;0.80;;
21733;SDS011;11029;47.820;10.534;2024-02-21T09:40:20;2.28;;;0.80;;
21733;SDS011;11029;47.820;10.534;2024-02-21T09:43:05;2.38;;;0.80;;
21733;SDS011;11029;47.820;10.534;2024-02-21T09:45:54;1.05;;;0.70;;
21733;SDS011;11029;47.820;10.534;2024-02-21T09:52:09;2.13;;;1.23;;
21733;SDS011;11029;47.820;10.534;2024-02-21T09:54:58;0.40;;;0.40;;
21733;SDS011;11029;47.820;10.534;2024-02-21T09:57:46;1.13;;;0.55;;
21733;SDS011;11029;47.820;10.534;2024-02-21T10:00:32;0.20;;;0.20;;
21733;SDS011;11029;47.820;10.534;2024-02-21T10:03:18;1.95;;;0.40;;
21733;SDS011;11029;47.820;10.534;2024-02-21T10:06:03;1.80;;;0.40;;
21733;SDS011;11029;47.820;10.534;2024-02-21T10:08:52;0.70;;;0.57;;
21733;SDS011;11029;47.820;10.534;2024-02-21T10:11:38;0.75;;;0.47;;
21733;SDS011;11029;47.820;10.534;2024-02-21T10:14:24;1.17;;;0.50;;
21733;SDS011;11029;47.820;10.534;2024-02-21T10:17:15;0.40;;;0.40;;
21733;SDS011;11029;47.820;10.534;2024-02-21T10:20:06;0.70;;;0.45;;
21733;SDS011;11029;47.820;10.534;2024-02-21T10:23:00;1.45;;;0.80;;
21733;SDS011;11029;47.820;10.534;2024-02-21T10:25:48;0.20;;;0.20;;
21733;SDS011;11029;47.820;10.534;2024-02-21T10:28:37;0.30;;;0.30;;
21733;SDS011;11029;47.820;10.534;2024-02-21T10:31:27;0.20;;;0.20;;
21733;SDS011;11029;47.820;10.534;2024-02-21T10:34:13;0.90;;;0.20;;
21733;SDS011;11029;47.820;10.534;2024-02-21T10:37:03;0.70;;;0.35;;
21733;SDS011;11029;47.820;10.534;2024-02-21T10:39:54;0.20;;;0.20;;
21733;SDS011;11029;47.820;10.534;2024-02-21T10:42:39;0.25;;;0.25;;
21733;SDS011;11029;47.820;10.534;2024-02-21T10:45:28;0.38;;;0.38;;
21733;SDS011;11029;47.820;10.534;2024-02-21T10:48:16;0.30;;;0.30;;
21733;SDS011;11029;47.820;10.534;2024-02-21T10:51:14;0.28;;;0.28;;
21733;SDS011;11029;47.820;10.534;2024-02-21T10:54:19;0.90;;;0.20;;
21733;SDS011;11029;47.820;10.534;2024-02-21T10:57:22;0.25;;;0.20;;
21733;SDS011;11029;47.820;10.534;2024-02-21T11:00:10;0.30;;;0.30;;
21733;SDS011;11029;47.820;10.534;2024-02-21T11:02:58;1.48;;;0.25;;
21733;SDS011;11029;47.820;10.534;2024-02-21T11:05:45;0.32;;;0.32;;
21733;SDS011;11029;47.820;10.534;2024-02-21T11:08:31;0.35;;;0.30;;
21733;SDS011;11029;47.820;10.534;2024-02-21T11:11:16;0.45;;;0.30;;
21733;SDS011;11029;47.820;10.534;2024-02-21T11:14:18;0.20;;;0.20;;
21733;SDS011;11029;47.820;10.534;2024-02-21T11:17:18;0.22;;;0.22;;
21733;SDS011;11029;47.820;10.534;2024-02-21T11:20:12;0.95;;;0.30;;
21733;SDS011;11029;47.820;10.534;2024-02-21T11:22:58;0.70;;;0.40;;
21733;SDS011;11029;47.820;10.534;2024-02-21T11:25:45;0.50;;;0.50;;
21733;SDS011;11029;47.820;10.534;2024-02-21T11:28:32;0.68;;;0.40;;
21733;SDS011;11029;47.820;10.534;2024-02-21T11:31:18;0.30;;;0.30;;
21733;SDS011;11029;47.820;10.534;2024-02-21T11:34:04;0.40;;;0.40;;
21733;SDS011;11029;47.820;10.534;2024-02-21T11:36:50;0.52;;;0.50;;
21733;SDS011;11029;47.820;10.534;2024-02-21T11:39:37;1.02;;;0.40;;
21733;SDS011;11029;47.820;10.534;2024-02-21T11:42:26;0.43;;;0.40;;
21733;SDS011;11029;47.820;10.534;2024-02-21T11:45:14;0.30;;;0.30;;
21733;SDS011;11029;47.820;10.534;2024-02-21T11:48:00;0.40;;;0.30;;
21733;SDS011;11029;47.820;10.534;2024-02-21T11:50:55;0.40;;;0.30;;
21733;SDS011;11029;47.820;10.534;2024-02-21T11:53:41;0.65;;;0.38;;
21733;SDS011;11029;47.820;10.534;2024-02-21T11:56:41;0.30;;;0.30;;
21733;SDS011;11029;47.820;10.534;2024-02-21T11:59:26;0.40;;;0.32;;
21733;SDS011;11029;47.820;10.534;2024-02-21T12:02:15;0.65;;;0.35;;
21733;SDS011;11029;47.820;10.534;2024-02-21T12:05:02;0.43;;;0.30;;
21733;SDS011;11029;47.820;10.534;2024-02-21T12:07:49;1.25;;;0.35;;
21733;SDS011;11029;47.820;10.534;2024-02-21T12:10:35;0.20;;;0.20;;
21733;SDS011;11029;47.820;10.534;2024-02-21T12:13:22;1.50;;;0.30;;
21733;SDS011;11029;47.820;10.534;2024-02-21T12:16:09;0.90;;;0.30;;
21733;SDS011;11029;47.820;10.534;2024-02-21T12:18:56;0.47;;;0.30;;
21733;SDS011;11029;47.820;10.534;2024-02-21T12:21:43;0.85;;;0.30;;
21733;SDS011;11029;47.820;10.534;2024-02-21T12:24:29;0.28;;;0.28;;
21733;SDS011;11029;47.820;10.534;2024-02-21T12:27:15;0.47;;;0.10;;
21733;SDS011;11029;47.820;10.534;2024-02-21T12:30:01;1.00;;;0.30;;
21733;SDS011;11029;47.820;10.534;2024-02-21T12:32:50;0.20;;;0.20;;
21733;SDS011;11029;47.820;10.534;2024-02-21T12:35:36;0.20;;;0.20;;
21733;SDS011;11029;47.820;10.534;2024-02-21T12:38:22;1.10;;;0.30;;
21733;SDS011;11029;47.820;10.534;2024-02-21T12:41:07;0.20;;;0.20;;
21733;SDS011;11029;47.820;10.534;2024-02-21T12:43:53;0.63;;;0.25;;
21733;SDS011;11029;47.820;10.534;2024-02-21T12:46:39;0.63;;;0.38;;
21733;SDS011;11029;47.820;10.534;2024-02-21T12:49:25;0.57;;;0.40;;
21733;SDS011;11029;47.820;10.534;2024-02-21T12:52:14;0.60;;;0.30;;
21733;SDS011;11029;47.820;10.534;2024-02-21T12:55:00;0.40;;;0.22;;
21733;SDS011;11029;47.820;10.534;2024-02-21T12:57:45;0.20;;;0.20;;
21733;SDS011;11029;47.820;10.534;2024-02-21T13:00:31;0.68;;;0.30;;
21733;SDS011;11029;47.820;10.534;2024-02-21T13:03:16;1.50;;;1.40;;
21733;SDS011;11029;47.820;10.534;2024-02-21T13:06:02;0.60;;;0.40;;
21733;SDS011;11029;47.820;10.534;2024-02-21T13:08:48;0.25;;;0.25;;
21733;SDS011;11029;47.820;10.534;2024-02-21T13:11:34;0.30;;;0.30;;
21733;SDS011;11029;47.820;10.534;2024-02-21T13:14:20;0.70;;;0.30;;
21733;SDS011;11029;47.820;10.534;2024-02-21T13:17:07;0.45;;;0.30;;
21733;SDS011;11029;47.820;10.534;2024-02-21T13:19:53;0.40;;;0.40;;
21733;SDS011;11029;47.820;10.534;2024-02-21T13:22:39;0.38;;;0.20;;
21733;SDS011;11029;47.820;10.534;2024-02-21T13:25:25;0.77;;;0.32;;
21733;SDS011;11029;47.820;10.534;2024-02-21T13:28:11;0.30;;;0.30;;
21733;SDS011;11029;47.820;10.534;2024-02-21T13:30:58;0.22;;;0.22;;
21733;SDS011;11029;47.820;10.534;2024-02-21T13:33:43;0.35;;;0.28;;
21733;SDS011;11029;47.820;10.534;2024-02-21T13:36:29;0.40;;;0.40;;
21733;SDS011;11029;47.820;10.534;2024-02-21T13:39:14;0.40;;;0.30;;
21733;SDS011;11029;47.820;10.534;2024-02-21T13:42:01;0.30;;;0.30;;
21733;SDS011;11029;47.820;10.534;2024-02-21T13:44:47;0.32;;;0.32;;
21733;SDS011;11029;47.820;10.534;2024-02-21T13:47:33;3.65;;;0.40;;
21733;SDS011;11029;47.820;10.534;2024-02-21T13:50:23;0.73;;;0.35;;
21733;SDS011;11029;47.820;10.534;2024-02-21T13:53:15;2.60;;;2.40;;
21733;SDS011;11029;47.820;10.534;2024-02-21T13:56:03;0.77;;;0.75;;
21733;SDS011;11029;47.820;10.534;2024-02-21T13:58:49;2.58;;;0.30;;
21733;SDS011;11029;47.820;10.534;2024-02-21T14:01:34;0.47;;;0.30;;
21733;SDS011;11029;47.820;10.534;2024-02-21T14:04:20;1.45;;;0.40;;
21733;SDS011;11029;47.820;10.534;2024-02-21T14:07:06;0.20;;;0.20;;
21733;SDS011;11029;47.820;10.534;2024-02-21T14:09:52;0.93;;;0.30;;
21733;SDS011;11029;47.820;10.534;2024-02-21T14:12:38;0.35;;;0.32;;
21733;SDS011;11029;47.820;10.534;2024-02-21T14:15:24;0.30;;;0.30;;
21733;SDS011;11029;47.820;10.534;2024-02-21T14:18:10;0.30;;;0.30;;
21733;SDS011;11029;47.820;10.534;2024-02-21T14:20:55;1.98;;;0.30;;
21733;SDS011;11029;47.820;10.534;2024-02-21T14:23:41;0.40;;;0.40;;
21733;SDS011;11029;47.820;10.534;2024-02-21T14:26:27;0.65;;;0.43;;
21733;SDS011;11029;47.820;10.534;2024-02-21T14:29:15;1.17;;;0.60;;
21733;SDS011;11029;47.820;10.534;2024-02-21T14:32:00;1.63;;;0.43;;
21733;SDS011;11029;47.820;10.534;2024-02-21T14:34:46;0.60;;;0.38;;
21733;SDS011;11029;47.820;10.534;2024-02-21T14:37:31;0.40;;;0.40;;
21733;SDS011;11029;47.820;10.534;2024-02-21T14:40:17;1.75;;;0.50;;
21733;SDS011;11029;47.820;10.534;2024-02-21T14:43:04;1.20;;;0.50;;
21733;SDS011;11029;47.820;10.534;2024-02-21T14:45:49;0.50;;;0.45;;
21733;SDS011;11029;47.820;10.534;2024-02-21T14:48:35;0.47;;;0.40;;
21733;SDS011;11029;47.820;10.534;2024-02-21T14:51:21;1.67;;;0.30;;
21733;SDS011;11029;47.820;10.534;2024-02-21T14:54:07;0.47;;;0.40;;
21733;SDS011;11029;47.820;10.534;2024-02-21T14:56:53;0.82;;;0.40;;
21733;SDS011;11029;47.820;10.534;2024-02-21T14:59:40;1.15;;;0.63;;
21733;SDS011;11029;47.820;10.534;2024-02-21T15:02:26;2.60;;;0.65;;
21733;SDS011;11029;47.820;10.534;2024-02-21T15:05:13;0.43;;;0.40;;
21733;SDS011;11029;47.820;10.534;2024-02-21T15:07:59;0.40;;;0.40;;
21733;SDS011;11029;47.820;10.534;2024-02-21T15:10:44;1.42;;;0.45;;
21733;SDS011;11029;47.820;10.534;2024-02-21T15:13:30;0.60;;;0.40;;
21733;SDS011;11029;47.820;10.534;2024-02-21T15:16:16;2.25;;;0.60;;
21733;SDS011;11029;47.820;10.534;2024-02-21T15:19:01;0.50;;;0.43;;
21733;SDS011;11029;47.820;10.534;2024-02-21T15:21:48;0.80;;;0.50;;
21733;SDS011;11029;47.820;10.534;2024-02-21T15:24:34;0.57;;;0.57;;
21733;SDS011;11029;47.820;10.534;2024-02-21T15:27:19;0.52;;;0.50;;
21733;SDS011;11029;47.820;10.534;2024-02-21T15:30:05;0.85;;;0.50;;
21733;SDS011;11029;47.820;10.534;2024-02-21T15:32:52;0.50;;;0.50;;
21733;SDS011;11029;47.820;10.534;2024-02-21T15:35:40;0.50;;;0.50;;
21733;SDS011;11029;47.820;10.534;2024-02-21T15:38:26;0.60;;;0.57;;
21733;SDS011;11029;47.820;10.534;2024-02-21T15:41:13;2.53;;;0.82;;
21733;SDS011;11029;47.820;10.534;2024-02-21T15:43:59;2.40;;;1.83;;
21733;SDS011;11029;47.820;10.534;2024-02-21T15:46:45;1.15;;;0.95;;
21733;SDS011;11029;47.820;10.534;2024-02-21T15:49:30;0.60;;;0.60;;
21733;SDS011;11029;47.820;10.534;2024-02-21T15:52:16;0.77;;;0.68;;
21733;SDS011;11029;47.820;10.534;2024-02-21T15:55:02;0.65;;;0.60;;
21733;SDS011;11029;47.820;10.534;2024-02-21T15:57:52;1.00;;;0.90;;
21733;SDS011;11029;47.820;10.534;2024-02-21T16:00:37;0.70;;;0.70;;
21733;SDS011;11029;47.820;10.534;2024-02-21T16:03:23;0.95;;;0.60;;
21733;SDS011;11029;47.820;10.534;2024-02-21T16:06:09;2.90;;;0.70;;
21733;SDS011;11029;47.820;10.534;2024-02-21T16:08:55;1.40;;;0.63;;
21733;SDS011;11029;47.820;10.534;2024-02-21T16:11:40;0.70;;;0.70;;
21733;SDS011;11029;47.820;10.534;2024-02-21T16:14:26;1.00;;;0.50;;
21733;SDS011;11029;47.820;10.534;2024-02-21T16:17:12;0.60;;;0.60;;
21733;SDS011;11029;47.820;10.534;2024-02-21T16:19:58;1.67;;;0.70;;
21733;SDS011;11029;47.820;10.534;2024-02-21T16:22:46;1.35;;;1.10;;
21733;SDS011;11029;47.820;10.534;2024-02-21T16:25:32;4.20;;;1.90;;
21733;SDS011;11029;47.820;10.534;2024-02-21T16:28:18;3.00;;;1.35;;
21733;SDS011;11029;47.820;10.534;2024-02-21T16:31:04;3.72;;;1.73;;